Flight Track Log - Related Links

Times and Time Zones

All times are in EDT time to prevent confusion due to time zone crossing. See the FFT975 flight status page for this flight to view local times or setup timezone preferences in your user account.

Time Position Orientation Groundspeed Altitude Reporting Facility
EDT Latitude Longitude Course Direction KTS MPH feet Rate Location/Type
Sat 06:40:03 AM 40.2490 -74.8510 226° Southwest 169 194 1,900  Level FlightAware ADS-B
Sat 06:40:31 AM 40.2310 -74.8750 226° Southwest 217 250 2,500 1,167 Climbing FlightAware ADS-B
Sat 06:40:39 AM 40.2260 -74.8830 231° Southwest 231 266 2,600 2,780 Climbing FlightAware ADS-B
Sat 06:41:12 AM 40.2010 -74.9170 226° Southwest 239 275 4,400 3,051 Climbing FlightAware ADS-B
Sat 06:41:38 AM 40.1770 -74.9380 214° Southwest 256 295 5,600 2,421 Climbing FlightAware ADS-B
Sat 06:42:09 AM 40.1430 -74.9610 207° Southwest 274 315 6,700 1,322 Climbing FlightAware ADS-B
Sat 06:42:37 AM 40.1100 -74.9830 207° Southwest 274 315 6,900 214 Climbing FlightAware ADS-B
Sat 06:43:05 AM 40.0790 -75.0050 209° Southwest 275 316 6,900  Level FlightAware ADS-B
Sat 06:43:33 AM 40.0470 -75.0260 207° Southwest 275 316 6,900 300 Level FlightAware ADS-B
Sat 06:43:45 AM 40.0340 -75.0350 208° Southwest 275 316 7,100 2,700 Climbing FlightAware ADS-B
Sat 06:44:13 AM 40.0020 -75.0570 208° Southwest 272 313 8,700 2,836 Climbing FlightAware ADS-B
Sat 06:44:40 AM 39.9710 -75.0780 207° Southwest 278 320 9,700 1,286 Climbing FlightAware ADS-B
Sat 06:45:09 AM 39.9380 -75.1000 207° Southwest 284 327 9,900 107 Climbing FlightAware ADS-B
Sat 06:45:36 AM 39.9030 -75.1230 207° Southwest 317 365 9,800  Descending FlightAware ADS-B
Sat 06:46:04 AM 39.8670 -75.1480 208° Southwest 321 369 9,900 105 Climbing FlightAware ADS-B
Sat 06:46:33 AM 39.8290 -75.1740 208° Southwest 319 367 9,900 1,315 Level FlightAware ADS-B
Sat 06:47:17 AM 39.7710 -75.2120 207° Southwest 326 375 11,500 1,412 Climbing FlightAware ADS-B
Sat 06:47:58 AM 39.7140 -75.2510 208° Southwest 330 380 11,900 289 Climbing FlightAware ADS-B
Sat 06:48:40 AM 39.6570 -75.2890 207° Southwest 333 383 11,900  Level FlightAware ADS-B
Sat 06:49:07 AM 39.6190 -75.3050 198° South 334 384 11,900  Level FlightAware ADS-B
Sat 06:49:51 AM 39.5570 -75.3170 188° South 335 386 11,900 1,032 Level FlightAware ADS-B
Sat 06:50:40 AM 39.4740 -75.3320 188° South 339 390 13,500 2,225 Climbing FlightAware ADS-B
Sat 06:51:20 AM 39.4110 -75.3440 188° South 346 398 15,200 2,313 Climbing FlightAware ADS-B
Sat 06:52:03 AM 39.3440 -75.3560 188° South 355 409 16,700 1,214 Climbing FlightAware ADS-B
Sat 06:52:44 AM 39.2770 -75.3680 188° South 354 407 16,900 805 Climbing FlightAware ADS-B
Sat 06:53:25 AM 39.2100 -75.3800 188° South 358 412 17,800 1,792 Climbing FlightAware ADS-B
Sat 06:54:01 AM 39.1510 -75.3890 187° South 359 413 19,200 1,810 Climbing FlightAware ADS-B
Sat 06:55:21 AM 39.0140 -75.4100 187° South 385 443 21,300 1,767 Climbing FlightAware ADS-B
Sat 06:56:10 AM 38.9240 -75.4230 186° South 389 448 23,000 1,950 Climbing FlightAware ADS-B
Sat 06:56:41 AM 38.8700 -75.4320 187° South 393 452 23,900 1,644 Climbing FlightAware ADS-B
Sat 06:57:23 AM 38.7940 -75.4430 186° South 399 459 25,000 1,483 Climbing FlightAware ADS-B
Sat 06:58:10 AM 38.7040 -75.4570 187° South 409 471 26,100 1,326 Climbing FlightAware ADS-B
Sat 06:58:49 AM 38.6300 -75.4680 187° South 419 482 26,900 1,275 Climbing FlightAware ADS-B
Sat 06:59:30 AM 38.5510 -75.4800 187° South 427 491 27,800 1,256 Climbing FlightAware ADS-B
Sat 07:00:15 AM 38.4620 -75.4930 187° South 435 501 28,700 1,229 Climbing FlightAware ADS-B
Sat 07:00:53 AM 38.3860 -75.5110 191° South 437 503 29,500 1,429 Climbing FlightAware ADS-B
Sat 07:01:39 AM 38.3010 -75.5570 203° Southwest 429 494 30,700 1,605 Climbing FlightAware ADS-B
Sat 07:02:19 AM 38.2390 -75.6110 214° Southwest 423 487 31,800 1,500 Climbing FlightAware ADS-B
Sat 07:03:03 AM 38.1670 -75.6780 216° Southwest 424 488 32,800 1,214 Climbing FlightAware ADS-B
Sat 07:03:43 AM 38.1030 -75.7380 216° Southwest 427 491 33,500 868 Climbing FlightAware ADS-B
Sat 07:04:19 AM 38.0480 -75.7900 217° Southwest 427 491 33,900 375 Climbing FlightAware ADS-B
Sat 07:05:03 AM 37.9780 -75.8550 216° Southwest 426 490 34,000 65 Climbing FlightAware ADS-B
Sat 07:05:51 AM 37.9000 -75.9290 217° Southwest 428 493 34,000  Level FlightAware ADS-B
Sat 07:06:31 AM 37.8370 -75.9870 216° Southwest 428 493 34,000 308 Level FlightAware ADS-B
Sat 07:07:09 AM 37.7940 -76.0250 215° Southwest 431 496 34,400 1,129 Climbing FlightAware ADS-B
Sat 07:07:56 AM 37.6900 -76.0950 208° Southwest 430 495 35,600 1,157 Climbing FlightAware ADS-B
Sat 07:08:32 AM 37.6260 -76.1370 207° Southwest 427 491 36,000 333 Climbing FlightAware ADS-B
Sat 07:09:08 AM 37.5650 -76.1770 207° Southwest 428 493 36,000  Level FlightAware ADS-B
Sat 07:09:52 AM 37.4890 -76.2270 208° Southwest 427 491 36,000  Level FlightAware ADS-B
Sat 07:10:26 AM 37.4280 -76.2660 207° Southwest 428 493 36,000  Level FlightAware ADS-B
Sat 07:11:12 AM 37.3450 -76.3200 207° Southwest 428 493 36,000  Level FlightAware ADS-B
Sat 07:11:51 AM 37.2860 -76.3580 207° Southwest 429 494 36,000  Level FlightAware ADS-B
Sat 07:12:36 AM 37.1970 -76.4150 207° Southwest 430 495 36,000  Level FlightAware ADS-B
Sat 07:13:16 AM 37.1260 -76.4610 207° Southwest 431 496 36,000  Level FlightAware ADS-B
Sat 07:14:02 AM 37.0430 -76.5140 207° Southwest 432 497 36,000  Level FlightAware ADS-B
Sat 07:14:40 AM 36.9770 -76.5560 207° Southwest 432 497 36,000  Level FlightAware ADS-B
Sat 07:15:30 AM 36.8860 -76.6140 207° Southwest 432 497 36,000  Level FlightAware ADS-B
Sat 07:16:10 AM 36.8160 -76.6590 207° Southwest 432 497 36,000 -71 Level FlightAware ADS-B
Sat 07:16:54 AM 36.7370 -76.7090 207° Southwest 432 497 35,900  Descending FlightAware ADS-B
Sat 07:17:28 AM 36.6780 -76.7470 207° Southwest 433 498 36,000 86 Climbing FlightAware ADS-B
Sat 07:18:04 AM 36.6130 -76.7880 207° Southwest 434 499 36,000  Level FlightAware ADS-B
Sat 07:18:51 AM 36.5310 -76.8400 207° Southwest 36,000  Level FlightAware ADS-B
Sat 07:19:31 AM 36.4580 -76.8850 206° Southwest 435 501 36,000  Level FlightAware ADS-B
Sat 07:20:16 AM 36.3780 -76.9350 207° Southwest 434 499 36,000  Level FlightAware ADS-B
Sat 07:21:01 AM 36.2980 -76.9860 207° Southwest 425 489 36,000  Level FlightAware ADS-B
Sat 07:21:36 AM 36.2390 -77.0330 213° Southwest 422 486 36,000  Level FlightAware ADS-B
Sat 07:22:21 AM 36.1680 -77.1000 217° Southwest 427 491 36,000  Level FlightAware ADS-B
Sat 07:23:06 AM 36.0980 -77.1660 217° Southwest 428 493 36,000  Level FlightAware ADS-B
Sat 07:24:01 AM 36.0220 -77.2370 217° Southwest 428 493 36,000  Level FlightAware ADS-B
Sat 07:24:41 AM 35.9480 -77.3070 217° Southwest 428 493 36,000  Level FlightAware ADS-B
Sat 07:25:28 AM 35.8730 -77.3770 217° Southwest 429 494 36,000  Level FlightAware ADS-B
Sat 07:26:05 AM 35.8160 -77.4300 217° Southwest 431 496 36,000  Level FlightAware ADS-B
Sat 07:26:47 AM 35.7520 -77.4900 217° Southwest 424 488 36,000  Level FlightAware ADS-B
Sat 07:27:47 AM 35.6530 -77.5820 217° Southwest 430 495 36,000  Level FlightAware ADS-B
Sat 07:28:28 AM 35.5880 -77.6420 217° Southwest 430 495 36,000  Level FlightAware ADS-B
Sat 07:29:04 AM 35.5300 -77.6960 217° Southwest 429 494 36,000  Level FlightAware ADS-B
Sat 07:29:41 AM 35.4800 -77.7420 217° Southwest 429 494 36,000  Level FlightAware ADS-B
Sat 07:30:29 AM 35.4050 -77.8110 217° Southwest 427 491 36,000  Level FlightAware ADS-B
Sat 07:31:05 AM 35.3560 -77.8560 217° Southwest 427 491 36,000  Level FlightAware ADS-B
Sat 07:31:41 AM 35.3080 -77.9010 217° Southwest 427 491 36,000  Level FlightAware ADS-B
Sat 07:32:18 AM 35.2330 -77.9680 216° Southwest 426 490 36,000  Level FlightAware ADS-B
Sat 07:33:06 AM 35.1680 -78.0260 216° Southwest 426 490 36,000  Level FlightAware ADS-B
Sat 07:34:06 AM 35.0670 -78.1200 217° Southwest 426 490 36,000  Level FlightAware ADS-B
Sat 07:34:48 AM 34.9990 -78.1820 217° Southwest 426 490 36,000  Level FlightAware ADS-B
Sat 07:35:22 AM 34.9320 -78.2440 217° Southwest 426 490 36,000  Level FlightAware ADS-B
Sat 07:36:10 AM 34.8560 -78.3130 217° Southwest 426 490 36,000  Level FlightAware ADS-B
Sat 07:36:46 AM 34.8010 -78.3630 217° Southwest 425 489 36,000  Level FlightAware ADS-B
Sat 07:37:26 AM 34.7370 -78.4210 217° Southwest 424 488 36,000  Level FlightAware ADS-B
Sat 07:38:10 AM 34.6670 -78.4840 217° Southwest 423 487 36,000  Level FlightAware ADS-B
Sat 07:38:40 AM 34.6200 -78.5260 216° Southwest 422 486 36,000  Level FlightAware ADS-B
Sat 07:39:26 AM 34.5480 -78.5910 217° Southwest 421 484 36,000  Level FlightAware ADS-B
Sat 07:40:09 AM 34.4910 -78.6400 215° Southwest 421 484 36,000  Level FlightAware ADS-B
Sat 07:41:58 AM 34.3070 -78.8020 216° Southwest 426 490 36,000 -31 Level FlightAware ADS-B
Sat 07:43:21 AM 34.1711 -78.8844 216° Southwest 433 498 35,900 -42 Descending Jacksonville Center
Sat 07:44:21 AM 34.0622 -78.9369 202° Southwest 433 498 35,900  Level Jacksonville Center
Sat 07:45:21 AM 33.9492 -78.9897 201° Southwest 433 498 35,900  Level Jacksonville Center
Sat 07:46:21 AM 33.8342 -79.0447 202° Southwest 438 504 35,900 50 Level Jacksonville Center
Sat 07:47:21 AM 33.7231 -79.0997 202° Southwest 438 504 36,000  Climbing Jacksonville Center
Sat 07:48:21 AM 33.6017 -79.1547 201° Southwest 431 496 35,900 -50 Descending Jacksonville Center
Sat 07:49:21 AM 33.4883 -79.2069 201° Southwest 426 490 35,900  Level Jacksonville Center
Sat 07:50:21 AM 33.3772 -79.2611 202° Southwest 431 496 35,900  Level Jacksonville Center
Sat 07:51:21 AM 33.2661 -79.3128 201° Southwest 431 496 35,900  Level Jacksonville Center
Sat 07:52:21 AM 33.1756 -79.3561 202° Southwest 431 496 35,900  Level Jacksonville Center
Sat 07:53:21 AM 33.0519 -79.4156 202° Southwest 431 496 35,900  Level Jacksonville Center
Sat 07:54:21 AM 32.9364 -79.4672 201° Southwest 437 503 35,900  Level Jacksonville Center
Sat 07:55:21 AM 32.8231 -79.5233 203° Southwest 442 509 35,900 50 Level Jacksonville Center
Sat 07:56:21 AM 32.7075 -79.5769 201° Southwest 447 514 36,000  Climbing Jacksonville Center
Sat 07:57:21 AM 32.5922 -79.6306 201° Southwest 447 514 35,900 -50 Descending Jacksonville Center
Sat 07:58:21 AM 32.4786 -79.6839 202° Southwest 447 514 35,900  Level Jacksonville Center
Sat 07:59:22 AM 32.3631 -79.7394 202° Southwest 447 514 35,900  Level Jacksonville Center
Sat 08:00:21 AM 32.2497 -79.7903 201° Southwest 447 514 35,900  Level Jacksonville Center
Sat 08:01:21 AM 32.1361 -79.8456 202° Southwest 447 514 35,900  Level Jacksonville Center
Sat 08:02:21 AM 32.0206 -79.8983 201° Southwest 447 514 35,900  Level Jacksonville Center
Sat 08:03:21 AM 31.9047 -79.9511 201° Southwest 447 514 35,900  Level Jacksonville Center
Sat 08:04:21 AM 31.7892 -80.0061 202° Southwest 452 520 35,900  Level Jacksonville Center
Sat 08:05:21 AM 31.6756 -80.0558 200° South 447 514 35,900  Level Jacksonville Center
Sat 08:06:21 AM 31.5619 -80.1081 201° Southwest 447 514 35,900  Level Jacksonville Center
Sat 08:07:21 AM 31.4461 -80.1628 202° Southwest 447 514 35,900 15 Level Jacksonville Center
Sat 08:12:57 AM 30.7950 -80.4500 202° Southwest 443 510 36,000 16 Climbing FlightAware ADS-B
Sat 08:13:35 AM 30.7320 -80.4740 198° South 443 510 36,000  Level FlightAware ADS-B
Sat 08:14:35 AM 30.6330 -80.5120 198° South 443 510 36,000  Level FlightAware ADS-B
Sat 08:15:11 AM 30.5730 -80.5340 198° South 443 510 36,000  Level FlightAware ADS-B
Sat 08:16:01 AM 30.4900 -80.5650 198° South 443 510 36,000  Level FlightAware ADS-B
Sat 08:16:37 AM 30.4310 -80.5880 199° South 443 510 36,000  Level FlightAware ADS-B
Sat 08:17:06 AM 30.2730 -80.4410 141° Southeast 450 518 36,000  Level FlightAware ADS-B
Sat 08:17:42 AM 30.1980 -80.4410 180° South 446 513 36,000  Level FlightAware ADS-B
Sat 08:18:21 AM 30.1220 -80.4390 179° South 446 513 36,000  Level FlightAware ADS-B
Sat 08:19:08 AM 30.0280 -80.4390 180° South 447 514 36,000  Level FlightAware ADS-B
Sat 08:19:45 AM 29.9630 -80.4380 179° South 447 514 36,000  Level FlightAware ADS-B
Sat 08:20:45 AM 29.9840 -80.4390 358° North 447 514 36,000  Level FlightAware ADS-B
Sat 08:21:43 AM 29.8820 -80.4390 180° South 447 514 36,000  Level FlightAware ADS-B
Sat 08:22:19 AM 29.8190 -80.4390 180° South 447 514 36,000  Level FlightAware ADS-B
Sat 08:22:55 AM 29.7560 -80.4390 180° South 447 514 36,000  Level FlightAware ADS-B
Sat 08:23:41 AM 29.6750 -80.4390 180° South 447 514 36,000  Level FlightAware ADS-B
Sat 08:24:17 AM 29.6110 -80.4390 180° South 447 514 36,000  Level FlightAware ADS-B
Sat 08:24:55 AM 29.5450 -80.4390 180° South 447 514 36,000  Level FlightAware ADS-B
Sat 08:25:43 AM 29.4600 -80.4390 180° South 447 514 36,000  Level FlightAware ADS-B
Sat 08:26:19 AM 29.3970 -80.4390 180° South 447 514 36,000  Level FlightAware ADS-B
Sat 08:27:07 AM 29.3130 -80.4390 180° South 447 514 36,000  Level FlightAware ADS-B
Sat 08:27:44 AM 28.9230 -80.2800 160° South 468 539 36,000  Level FlightAware ADS-B
Sat 08:28:24 AM 28.8520 -80.2570 164° South 468 539 36,000  Level FlightAware ADS-B
Sat 08:29:12 AM 28.7670 -80.2290 164° South 468 539 36,000  Level FlightAware ADS-B
Sat 08:29:46 AM 28.6700 -80.2000 165° South 463 533 36,000  Level FlightAware ADS-B
Sat 08:30:44 AM 28.5590 -80.1650 165° South 461 531 36,000  Level FlightAware ADS-B
Sat 08:31:20 AM 28.4960 -80.1440 164° South 461 531 36,000 -80 Level FlightAware ADS-B
Sat 08:31:59 AM 28.3960 -80.1140 165° South 459 528 35,900 -79 Descending FlightAware ADS-B
Sat 08:32:36 AM 28.3310 -80.0930 164° South 459 528 35,900  Level FlightAware ADS-B
Sat 08:33:18 AM 28.2320 -80.0620 165° South 462 532 35,900 71 Level FlightAware ADS-B
Sat 08:34:00 AM 28.1470 -80.0360 165° South 464 534 36,000 67 Climbing FlightAware ADS-B
Sat 08:34:48 AM 28.0590 -80.0080 164° South 465 535 36,000  Level FlightAware ADS-B
Sat 08:35:28 AM 27.9890 -79.9850 164° South 465 535 36,000  Level FlightAware ADS-B
Sat 08:36:05 AM 27.9230 -79.9640 164° South 465 535 36,000 -512 Level FlightAware ADS-B
Sat 08:36:50 AM 27.7950 -79.9260 165° South 464 534 35,300 -1,400 Descending FlightAware ADS-B
Sat 08:37:35 AM 27.7040 -79.8980 165° South 471 542 33,900 -2,682 Descending FlightAware ADS-B
Sat 08:38:15 AM 27.6150 -79.8700 164° South 465 535 31,500 -3,659 Descending FlightAware ADS-B
Sat 08:38:57 AM 27.5210 -79.8410 165° South 478 550 28,900 -3,698 Descending FlightAware ADS-B
Sat 08:39:41 AM 27.4270 -79.8170 167° South 473 544 26,200 -3,500 Descending FlightAware ADS-B
Sat 08:40:21 AM 27.3410 -79.8000 170° South 463 533 24,000 -3,220 Descending FlightAware ADS-B
Sat 08:41:03 AM 27.2540 -79.7830 170° South 453 521 21,800 -2,561 Descending FlightAware ADS-B
Sat 08:41:43 AM 27.1720 -79.7660 170° South 439 505 20,500 -2,100 Descending FlightAware ADS-B
Sat 08:42:43 AM 27.0540 -79.7430 170° South 427 491 18,300 -2,308 Descending FlightAware ADS-B
Sat 08:43:27 AM 26.9680 -79.7260 170° South 415 478 16,500 -2,318 Descending FlightAware ADS-B
Sat 08:44:11 AM 26.8870 -79.7100 170° South 404 465 14,900 -2,214 Descending FlightAware ADS-B
Sat 08:44:51 AM 26.8150 -79.6960 170° South 395 455 13,400 -2,170 Descending FlightAware ADS-B
Sat 08:45:45 AM 26.7180 -79.6990 182° South 382 440 11,500 -1,500 Descending FlightAware ADS-B
Sat 08:46:43 AM 26.6310 -79.7400 203° Southwest 331 381 10,600 -840 Descending FlightAware ADS-B
Sat 08:47:25 AM 26.5730 -79.7680 203° Southwest 300 345 10,100 -771 Descending FlightAware ADS-B
Sat 08:47:53 AM 26.5400 -79.7840 203° Southwest 287 330 9,700 -1,154 Descending FlightAware ADS-B
Sat 08:48:17 AM 26.5090 -79.7980 202° Southwest 286 329 9,100 -1,500 Descending FlightAware ADS-B
Sat 08:48:37 AM 26.4850 -79.8100 204° Southwest 284 327 8,600 -1,375 Descending FlightAware ADS-B
Sat 08:49:05 AM 26.4510 -79.8250 202° Southwest 281 323 8,000 -737 Descending FlightAware ADS-B
Sat 08:49:34 AM 26.4160 -79.8420 204° Southwest 284 327 7,900 -115 Descending FlightAware ADS-B
Sat 08:49:57 AM 26.3890 -79.8550 203° Southwest 282 325 7,900 -585 Level FlightAware ADS-B
Sat 08:50:15 AM 26.3670 -79.8630 198° South 280 322 7,500 -1,286 Descending FlightAware ADS-B
Sat 08:50:39 AM 26.3360 -79.8680 188° South 278 320 7,000 -1,500 Descending FlightAware ADS-B
Sat 08:51:11 AM 26.2950 -79.8750 189° South 274 315 6,100 -1,680 Descending FlightAware ADS-B
Sat 08:51:29 AM 26.2720 -79.8790 189° South 271 312 5,600 -1,500 Descending FlightAware ADS-B
Sat 08:51:47 AM 26.2510 -79.8830 190° South 268 308 5,200 -1,571 Descending FlightAware ADS-B
Sat 08:52:11 AM 26.2230 -79.8890 191° South 267 307 4,500 -1,269 Descending FlightAware ADS-B
Sat 08:52:39 AM 26.1880 -79.8950 189° South 252 290 4,100 -643 Descending FlightAware ADS-B
Sat 08:53:07 AM 26.1570 -79.9010 190° South 229 264 3,900 -250 Descending FlightAware ADS-B
Sat 08:53:27 AM 26.1370 -79.9050 190° South 221 254 3,900 -474 Level FlightAware ADS-B
Sat 08:53:45 AM 26.1180 -79.9090 191° South 220 253 3,600 -1,227 Descending FlightAware ADS-B
Sat 08:54:11 AM 26.0950 -79.9200 203° Southwest 220 253 3,000 -1,286 Descending FlightAware ADS-B
Sat 08:54:27 AM 26.0870 -79.9360 241° Southwest 220 253 2,700 -1,091 Descending FlightAware ADS-B
Sat 08:54:55 AM 26.0770 -79.9650 249° West 214 246 2,200 -808 Descending FlightAware ADS-B
Sat 08:55:19 AM 26.0760 -79.9900 267° West 201 231 2,000 -375 Descending FlightAware ADS-B
Sat 08:55:59 AM 26.0760 -80.0300 270° West 189 217 1,800 -529 Descending FlightAware ADS-B
Sat 08:56:27 AM 26.0760 -80.0550 270° West 177 204 1,400 -857 Descending FlightAware ADS-B
Sat 08:56:55 AM 26.0770 -80.0800 273° West 149 171 1,000 -794 Descending FlightAware ADS-B
Sat 08:57:35 AM 26.0770 -80.1080 270° West 131 151 500 -764 Descending FlightAware ADS-B
Sat 08:57:50 AM 26.0770 -80.1180 270° West 131 151 300 -340 Descending FlightAware ADS-B
Sat 08:58:28 AM 26.0770 -80.1400 270° West 130 150 200 -158 Descending FlightAware ADS-B
Sat 09:05:00 AM 26.0726 -80.1527 99° East  Level Estimated
Sat 09:06:00 AM 26.0726 -80.1527 90° East  Level Estimated
Sat 09:07:00 AM 26.0726 -80.1527 90° East  Level Estimated

Login

Don't have an account? Register now (free) for customized features, flight alerts, and more!